Time;durP1;ratioP1;P1;durP2;ratioP2;P2;SDS_P1;SDS_P2;PMS_P1;PMS_P2;Temp;Humidity;BMP_temperature;BMP_pressure;BME280_temperature;BME280_humidity;BME280_pressure;Samples;Min_cycle;Max_cycle;Signal;HPM_P1;HPM_P2
2022/03/21 00:01:22;;;;;;;45.95;30.77;;;0.50;99.90;;;;;;4997503;28;20054;-69
2022/03/21 00:03:49;;;;;;;44.35;31.50;;;0.50;99.90;;;;;;5000658;28;20045;-68
2022/03/21 00:06:16;;;;;;;53.00;32.92;;;0.50;99.90;;;;;;4999683;28;20073;-67
2022/03/21 00:08:44;;;;;;;58.08;30.75;;;0.50;99.90;;;;;;4998817;28;20096;-68
2022/03/21 00:11:11;;;;;;;49.97;32.42;;;0.50;99.90;;;;;;4999808;28;20119;-67
2022/03/21 00:13:39;;;;;;;55.13;32.70;;;0.50;99.90;;;;;;4999150;28;20192;-67
2022/03/21 00:16:06;;;;;;;44.15;28.65;;;0.50;99.90;;;;;;4993718;28;20535;-67
2022/03/21 00:18:34;;;;;;;58.60;31.38;;;0.50;99.90;;;;;;4999459;28;20116;-68
2022/03/21 00:21:01;;;;;;;52.60;30.92;;;0.40;99.90;;;;;;4999630;28;20053;-66
2022/03/21 00:23:31;;;;;;;44.67;29.15;;;0.40;99.90;;;;;;4996983;28;20050;-68
2022/03/21 00:25:58;;;;;;;55.83;32.88;;;0.40;99.90;;;;;;4999380;28;20068;-71
2022/03/21 00:28:25;;;;;;;49.15;31.25;;;0.40;99.90;;;;;;4997240;28;20053;-67
2022/03/21 00:30:53;;;;;;;63.33;34.97;;;0.40;99.90;;;;;;4999156;28;20157;-65
2022/03/21 00:33:21;;;;;;;50.28;31.10;;;0.40;99.90;;;;;;4993769;28;21050;-65
2022/03/21 00:35:51;;;;;;;45.08;31.38;;;0.40;99.90;;;;;;4989060;28;20499;-66
2022/03/21 00:38:20;;;;;;;49.50;31.88;;;0.40;99.90;;;;;;4998376;28;20447;-65
2022/03/21 00:40:47;;;;;;;45.75;31.10;;;0.30;99.90;;;;;;4999429;28;20069;-72
2022/03/21 00:43:21;;;;;;;48.00;32.28;;;0.30;99.90;;;;;;4994024;28;20659;-70
2022/03/21 00:45:52;;;;;;;46.15;29.45;;;0.30;99.90;;;;;;5002563;28;20096;-68
2022/03/21 00:48:23;;;;;;;42.65;30.15;;;0.30;99.90;;;;;;4999765;28;20053;-71
2022/03/21 00:50:52;;;;;;;64.05;34.00;;;0.30;99.90;;;;;;4999831;28;20180;-65
2022/03/21 00:53:19;;;;;;;51.20;31.50;;;0.30;99.90;;;;;;4998511;28;20497;-66
2022/03/21 00:55:48;;;;;;;51.47;33.80;;;0.30;99.90;;;;;;4999180;28;20073;-65
2022/03/21 00:58:16;;;;;;;54.40;34.30;;;0.20;99.90;;;;;;5000024;28;20448;-68
2022/03/21 01:00:43;;;;;;;50.05;31.40;;;0.20;99.90;;;;;;5000500;28;20050;-68
2022/03/21 01:03:12;;;;;;;47.08;31.60;;;0.20;99.90;;;;;;4995335;28;20045;-65
2022/03/21 01:05:39;;;;;;;51.55;33.53;;;0.20;99.90;;;;;;5002412;28;20060;-70
2022/03/21 01:08:06;;;;;;;57.22;35.95;;;0.20;99.90;;;;;;5000145;28;20139;-71
2022/03/21 01:10:34;;;;;;;50.17;34.22;;;0.20;99.90;;;;;;5000225;28;20049;-67
2022/03/21 01:13:02;;;;;;;48.78;32.10;;;0.20;99.90;;;;;;4998896;28;20046;-68
2022/03/21 01:15:29;;;;;;;60.78;34.72;;;0.20;99.90;;;;;;4997381;28;20049;-71
2022/03/21 01:17:57;;;;;;;54.55;36.00;;;0.20;99.90;;;;;;4998299;28;20129;-65
2022/03/21 01:20:25;;;;;;;47.40;32.72;;;0.20;99.90;;;;;;4997003;28;20136;-67
2022/03/21 01:22:53;;;;;;;55.22;33.80;;;0.10;99.90;;;;;;4997409;28;20066;-71
2022/03/21 01:25:20;;;;;;;54.33;33.63;;;0.10;99.90;;;;;;4989569;28;20149;-67
2022/03/21 01:27:47;;;;;;;58.58;36.08;;;0.10;99.90;;;;;;4995274;28;20104;-68
2022/03/21 01:30:15;;;;;;;59.17;38.05;;;0.00;99.90;;;;;;5003187;28;20052;-68
2022/03/21 01:32:43;;;;;;;49.10;34.60;;;0.00;99.90;;;;;;5000563;28;20065;-68
2022/03/21 01:35:13;;;;;;;54.45;35.50;;;0.00;99.90;;;;;;5003085;28;20428;-66
2022/03/21 01:37:40;;;;;;;57.38;35.08;;;0.00;99.90;;;;;;4999373;28;20683;-71
2022/03/21 01:40:08;;;;;;;55.25;36.30;;;-0.10;99.90;;;;;;5001818;28;20517;-68
2022/03/21 01:42:36;;;;;;;57.67;35.88;;;-0.10;99.90;;;;;;5005702;28;20187;-68
2022/03/21 01:45:05;;;;;;;58.13;35.42;;;-0.10;99.90;;;;;;5001511;28;20137;-71
2022/03/21 01:47:33;;;;;;;57.55;37.55;;;-0.20;99.90;;;;;;5002761;28;20065;-69
2022/03/21 01:50:00;;;;;;;68.25;38.72;;;-0.20;99.90;;;;;;5002214;28;20057;-71
2022/03/21 01:52:27;;;;;;;57.83;37.42;;;-0.20;99.90;;;;;;4993644;28;20112;-63
2022/03/21 01:57:41;;;;;;;56.60;37.20;;;-0.20;99.90;;;;;;5000500;28;20115;-64
2022/03/21 02:00:08;;;;;;;52.60;33.13;;;-0.30;99.90;;;;;;5001705;28;20130;-68
2022/03/21 02:02:42;;;;;;;55.45;35.15;;;-0.30;99.90;;;;;;5003745;28;20057;-63
2022/03/21 02:05:10;;;;;;;55.50;34.83;;;-0.30;99.90;;;;;;5001867;28;20069;-64
2022/03/21 02:07:37;;;;;;;51.35;33.70;;;-0.30;99.90;;;;;;5004339;28;20069;-64
2022/03/21 02:10:07;;;;;;;53.90;35.05;;;-0.30;99.90;;;;;;5000912;28;20528;-62
2022/03/21 02:12:35;;;;;;;53.95;33.08;;;-0.40;99.90;;;;;;5003623;28;20057;-63
2022/03/21 02:15:04;;;;;;;57.85;36.30;;;-0.40;99.90;;;;;;5001920;28;20424;-69
2022/03/21 02:17:35;;;;;;;56.95;35.85;;;-0.40;99.90;;;;;;4994895;28;20491;-70
2022/03/21 02:20:04;;;;;;;61.92;35.33;;;-0.40;99.90;;;;;;5001814;28;20083;-66
2022/03/21 02:22:39;;;;;;;54.35;34.28;;;-0.40;99.90;;;;;;4997849;28;20092;-65
2022/03/21 02:25:35;;;;;;;54.05;37.58;;;-0.40;99.90;;;;;;4999989;28;20041;-65
2022/03/21 02:28:06;;;;;;;49.33;32.33;;;-0.40;99.90;;;;;;4997312;28;21463;-71
2022/03/21 02:30:37;;;;;;;54.35;34.78;;;-0.40;99.90;;;;;;4993308;28;20073;-66
2022/03/21 02:33:04;;;;;;;;;;;-0.40;99.90;;;;;;4998939;28;20115;-68
2022/03/21 02:35:33;;;;;;;51.47;33.40;;;-0.50;99.90;;;;;;5004460;28;20382;-64
2022/03/21 02:38:01;;;;;;;47.10;30.77;;;-0.40;99.90;;;;;;4996836;28;20057;-69
2022/03/21 02:40:28;;;;;;;58.78;32.97;;;-0.50;99.90;;;;;;4999367;28;20053;-65
2022/03/21 02:42:55;;;;;;;52.67;34.20;;;-0.40;99.90;;;;;;4996141;28;20472;-65
2022/03/21 02:45:22;;;;;;;45.75;30.50;;;-0.50;99.90;;;;;;4998853;28;20784;-63
2022/03/21 02:47:49;;;;;;;58.50;33.92;;;-0.50;99.90;;;;;;4999558;28;20049;-68
2022/03/21 02:50:36;;;;;;;49.13;33.28;;;-0.50;99.90;;;;;;4994401;28;20078;-63
2022/03/21 02:53:06;;;;;;;47.40;31.20;;;-0.50;99.90;;;;;;4996711;28;20161;-65
2022/03/21 02:55:33;;;;;;;48.63;31.08;;;-0.60;99.90;;;;;;4999334;28;20172;-66
2022/03/21 02:57:59;;;;;;;49.75;31.58;;;-0.60;99.90;;;;;;4996838;28;20136;-66
2022/03/21 03:00:27;;;;;;;53.03;32.83;;;-0.60;99.90;;;;;;4999228;28;20045;-65
2022/03/21 03:02:53;;;;;;;49.88;30.92;;;-0.60;99.90;;;;;;5001868;28;20165;-62
2022/03/21 03:05:21;;;;;;;51.10;31.05;;;-0.60;99.90;;;;;;4996687;28;20744;-65
2022/03/21 03:07:48;;;;;;;52.55;30.00;;;-0.60;99.90;;;;;;4998738;28;20053;-65
2022/03/21 03:10:15;;;;;;;52.10;34.03;;;-0.60;99.90;;;;;;4999689;28;20388;-65
2022/03/21 03:12:42;;;;;;;54.83;30.08;;;-0.60;99.90;;;;;;5000415;28;20108;-68
2022/03/21 03:15:09;;;;;;;55.72;29.30;;;-0.60;99.90;;;;;;4997049;28;20057;-66
2022/03/21 03:17:36;;;;;;;48.92;32.50;;;-0.60;99.90;;;;;;4992537;28;20133;-62
2022/03/21 03:20:03;;;;;;;55.40;31.45;;;-0.60;99.90;;;;;;4995402;28;20049;-67
2022/03/21 03:22:31;;;;;;;52.05;32.63;;;-0.60;99.90;;;;;;4998791;28;20050;-68
2022/03/21 03:24:58;;;;;;;48.80;32.15;;;-0.60;99.90;;;;;;5015918;28;20149;-66
2022/03/21 03:27:25;;;;;;;55.40;30.98;;;-0.60;99.90;;;;;;4950649;28;1111667;-66
2022/03/21 03:29:52;;;;;;;50.05;30.98;;;-0.70;99.90;;;;;;5000030;28;20054;-70
2022/03/21 03:32:19;;;;;;;42.75;29.48;;;-0.70;99.90;;;;;;4999479;28;20125;-64
2022/03/21 03:34:46;;;;;;;46.63;29.80;;;-0.70;99.90;;;;;;5002773;28;20054;-65
2022/03/21 03:37:16;;;;;;;48.27;28.33;;;-0.70;99.90;;;;;;4996158;28;20484;-66
2022/03/21 03:39:43;;;;;;;47.40;29.55;;;-0.70;99.90;;;;;;5001139;28;20057;-64
2022/03/21 03:42:10;;;;;;;49.03;29.15;;;-0.80;99.90;;;;;;5002249;28;20527;-64
2022/03/21 03:44:38;;;;;;;42.83;28.98;;;-0.80;99.90;;;;;;5000335;28;20382;-70
2022/03/21 03:47:05;;;;;;;45.83;28.80;;;-0.80;99.90;;;;;;4996995;28;20112;-69
2022/03/21 03:49:32;;;;;;;42.88;29.05;;;-0.80;99.90;;;;;;4995843;28;20147;-69
2022/03/21 03:51:59;;;;;;;43.70;30.40;;;-0.80;99.90;;;;;;5001504;28;20065;-64
2022/03/21 03:54:25;;;;;;;47.95;29.50;;;-0.80;99.90;;;;;;5001875;28;20493;-63
2022/03/21 03:56:52;;;;;;;40.60;29.50;;;-0.80;99.90;;;;;;4996530;28;20676;-69
2022/03/21 03:59:19;;;;;;;40.10;29.33;;;-0.90;99.90;;;;;;4996817;28;20069;-66
2022/03/21 04:01:46;;;;;;;55.85;31.30;;;-0.90;99.90;;;;;;4997485;28;20069;-63
2022/03/21 04:04:13;;;;;;;43.80;30.55;;;-0.90;99.90;;;;;;5000762;28;20065;-65
2022/03/21 04:06:40;;;;;;;50.13;29.65;;;-0.90;99.90;;;;;;5001563;28;20104;-62
2022/03/21 04:09:07;;;;;;;47.40;29.13;;;-1.00;99.90;;;;;;4995790;28;20538;-69
2022/03/21 04:11:34;;;;;;;47.92;30.92;;;-1.00;99.90;;;;;;5002458;28;20101;-63
2022/03/21 04:14:01;;;;;;;48.15;28.08;;;-1.00;99.90;;;;;;5000863;28;20046;-69
2022/03/21 04:16:29;;;;;;;46.22;30.50;;;-1.00;99.90;;;;;;4998743;28;20124;-68
2022/03/21 04:18:56;;;;;;;45.78;31.33;;;-1.00;99.90;;;;;;4998757;28;20408;-66
2022/03/21 04:21:26;;;;;;;49.55;31.58;;;-1.00;99.90;;;;;;4998993;28;20264;-66
2022/03/21 04:23:56;;;;;;;50.80;31.48;;;-0.90;99.90;;;;;;4996199;28;20436;-65
2022/03/21 04:26:23;;;;;;;51.42;31.55;;;-0.90;99.90;;;;;;4997082;28;20560;-67
2022/03/21 04:28:50;;;;;;;52.22;35.08;;;-0.90;99.90;;;;;;4997519;28;20100;-66
2022/03/21 04:31:17;;;;;;;45.50;30.00;;;-0.80;99.90;;;;;;4993993;28;20053;-69
2022/03/21 04:33:44;;;;;;;56.50;34.60;;;-0.80;99.90;;;;;;4996979;28;20140;-70
2022/03/21 04:36:13;;;;;;;47.35;32.55;;;-0.80;99.90;;;;;;4999420;28;20077;-65
2022/03/21 04:38:40;;;;;;;44.83;31.08;;;-0.80;99.90;;;;;;4999781;28;20132;-66
2022/03/21 04:41:07;;;;;;;48.08;33.47;;;-0.80;99.90;;;;;;4997084;28;20140;-66
2022/03/21 04:43:34;;;;;;;53.17;32.90;;;-0.80;99.90;;;;;;4999831;28;20057;-66
2022/03/21 04:46:01;;;;;;;57.50;35.20;;;-0.70;99.90;;;;;;4999877;28;20725;-69
2022/03/21 04:48:28;;;;;;;52.80;33.30;;;-0.60;99.90;;;;;;4997684;28;20943;-71
2022/03/21 04:50:55;;;;;;;47.53;33.72;;;-0.60;99.90;;;;;;4992406;28;20045;-68
2022/03/21 04:53:23;;;;;;;51.25;33.60;;;-0.60;99.90;;;;;;4998156;28;20049;-71
2022/03/21 04:55:49;;;;;;;45.38;30.40;;;-0.60;99.90;;;;;;4998118;28;20161;-69
2022/03/21 04:58:16;;;;;;;52.33;32.88;;;-0.50;99.90;;;;;;4996398;28;21487;-74
2022/03/21 05:00:46;;;;;;;54.72;34.30;;;-0.50;99.90;;;;;;4997927;28;20119;-73
2022/03/21 05:03:13;;;;;;;43.05;30.20;;;-0.40;99.90;;;;;;4999805;28;20652;-66
2022/03/21 05:05:43;;;;;;;47.38;31.58;;;-0.40;99.90;;;;;;4993983;28;20042;-71
2022/03/21 05:08:10;;;;;;;51.47;31.20;;;-0.30;99.90;;;;;;4997347;28;20057;-71
2022/03/21 05:10:37;;;;;;;46.92;29.88;;;-0.30;99.90;;;;;;5000727;28;20115;-68
2022/03/21 05:13:06;;;;;;;51.63;29.25;;;-0.20;99.90;;;;;;4998785;28;20050;-70
2022/03/21 05:15:34;;;;;;;43.63;30.80;;;-0.20;99.90;;;;;;4999195;28;20063;-65
2022/03/21 05:18:01;;;;;;;39.80;27.92;;;-0.20;99.90;;;;;;5002165;28;20078;-71
2022/03/21 05:20:28;;;;;;;40.75;29.58;;;-0.20;99.90;;;;;;4996878;28;20578;-69
2022/03/21 05:31:12;;;;;;;47.55;29.30;;;0.00;99.90;;;;;;4996538;28;20467;-67
2022/03/21 05:36:28;;;;;;;49.80;27.83;;;0.10;99.90;;;;;;5001533;28;20042;-65
2022/03/21 05:38:57;;;;;;;47.33;27.60;;;0.20;99.90;;;;;;5000934;28;20141;-65
2022/03/21 05:41:24;;;;;;;39.47;26.80;;;0.30;99.90;;;;;;4997669;28;20073;-69
2022/03/21 05:43:51;;;;;;;48.13;29.75;;;0.30;99.90;;;;;;4995995;28;20136;-69
2022/03/21 05:46:19;;;;;;;52.50;28.73;;;0.40;99.90;;;;;;4996059;28;20421;-66
2022/03/21 05:48:54;;;;;;;43.03;28.73;;;0.40;99.90;;;;;;5002093;28;20141;-73
2022/03/21 05:51:33;;;;;;;63.70;29.17;;;0.50;99.90;;;;;;4996986;28;20148;-64
2022/03/21 05:54:03;;;;;;;45.50;29.13;;;0.60;99.90;;;;;;4999401;28;20137;-69
2022/03/21 05:56:30;;;;;;;50.30;26.15;;;0.60;99.90;;;;;;4998628;28;20046;-66
2022/03/21 06:00:20;;;;;;;52.70;27.58;;;0.70;99.90;;;;;;5000319;28;20100;-68
2022/03/21 06:01:49;;;;;;;51.22;28.15;;;0.80;99.90;;;;;;4992836;28;20712;-68
2022/03/21 06:04:18;;;;;;;42.40;25.05;;;0.90;99.90;;;;;;4991211;28;20149;-68
2022/03/21 06:06:46;;;;;;;42.17;26.33;;;0.90;99.90;;;;;;5001180;28;20152;-67
2022/03/21 06:09:15;;;;;;;44.03;24.45;;;1.00;99.90;;;;;;5005149;28;20141;-67
2022/03/21 06:11:48;;;;;;;42.92;28.70;;;1.00;99.90;;;;;;5001565;28;20095;-68
2022/03/21 06:14:18;;;;;;;45.22;26.42;;;1.10;99.90;;;;;;4990120;28;20053;-65
2022/03/21 06:16:46;;;;;;;42.65;23.92;;;1.20;99.90;;;;;;5005186;28;20418;-65
2022/03/21 06:19:14;;;;;;;47.92;26.40;;;1.30;99.90;;;;;;4999968;28;20060;-68
2022/03/21 06:21:41;;;;;;;39.92;25.10;;;1.40;99.90;;;;;;5000201;28;20065;-71
2022/03/21 06:24:11;;;;;;;40.50;23.40;;;1.50;99.90;;;;;;5000983;28;20128;-67
2022/03/21 06:26:38;;;;;;;35.67;24.52;;;1.60;99.90;;;;;;4999595;28;20144;-71
2022/03/21 06:29:05;;;;;;;33.00;23.30;;;1.60;99.90;;;;;;4993772;28;20080;-65
2022/03/21 06:31:32;;;;;;;38.45;23.55;;;1.80;99.90;;;;;;4999305;28;20115;-68
2022/03/21 06:33:59;;;;;;;36.45;23.42;;;1.90;99.90;;;;;;5003193;28;20054;-71
2022/03/21 06:36:26;;;;;;;45.25;25.15;;;2.00;99.90;;;;;;4999915;28;20148;-65
2022/03/21 06:38:53;;;;;;;41.47;24.58;;;2.00;99.90;;;;;;5005063;28;20111;-68
2022/03/21 06:41:20;;;;;;;38.20;20.92;;;2.10;99.90;;;;;;5003242;28;20135;-72
2022/03/21 06:43:47;;;;;;;43.38;21.77;;;2.20;99.90;;;;;;4998456;28;20583;-65
2022/03/21 06:46:14;;;;;;;38.45;22.05;;;2.30;99.90;;;;;;5000478;28;20057;-66
2022/03/21 06:48:41;;;;;;;41.50;19.80;;;2.40;99.90;;;;;;5005013;28;20368;-72
2022/03/21 06:51:08;;;;;;;37.42;21.80;;;2.50;99.90;;;;;;5002678;28;20057;-66
2022/03/21 06:53:35;;;;;;;32.45;20.63;;;2.60;99.90;;;;;;5014998;28;20049;-65
2022/03/21 06:56:02;;;;;;;40.22;19.02;;;2.70;99.90;;;;;;5002878;28;20443;-73
2022/03/21 06:58:29;;;;;;;38.70;19.98;;;2.80;99.90;;;;;;5004111;28;20148;-70
2022/03/21 07:00:56;;;;;;;36.33;19.55;;;2.90;99.90;;;;;;4998299;28;20120;-65
2022/03/21 07:03:24;;;;;;;31.60;17.90;;;3.00;99.90;;;;;;5003426;28;20064;-72
2022/03/21 07:05:51;;;;;;;36.33;18.70;;;3.20;99.90;;;;;;5003517;28;20077;-68
2022/03/21 07:08:18;;;;;;;33.35;16.65;;;3.20;99.90;;;;;;5004744;28;20192;-68
2022/03/21 07:10:45;;;;;;;35.75;16.67;;;3.30;99.90;;;;;;5003422;28;20069;-68
2022/03/21 07:13:12;;;;;;;27.23;16.33;;;3.50;99.90;;;;;;5002392;28;20145;-68
2022/03/21 07:15:40;;;;;;;23.90;15.80;;;3.70;99.90;;;;;;5002582;28;20057;-71
2022/03/21 07:18:08;;;;;;;21.73;13.82;;;3.80;99.90;;;;;;4996539;28;20054;-70
2022/03/21 07:20:37;;;;;;;35.03;15.45;;;3.90;99.90;;;;;;5004303;28;20173;-69
2022/03/21 07:23:04;;;;;;;29.27;14.48;;;4.10;99.90;;;;;;4999939;28;20064;-66
2022/03/21 07:25:31;;;;;;;22.42;14.13;;;4.10;99.90;;;;;;4992496;28;20077;-71
2022/03/21 07:27:58;;;;;;;17.42;12.32;;;4.20;99.90;;;;;;5001343;28;20046;-67
2022/03/21 07:30:26;;;;;;;18.05;12.15;;;4.30;99.90;;;;;;5002346;28;20496;-66
2022/03/21 07:32:53;;;;;;;20.05;10.82;;;4.40;99.90;;;;;;5004192;28;20054;-71
2022/03/21 07:35:20;;;;;;;27.17;15.05;;;4.50;99.90;;;;;;5000169;28;20767;-66
2022/03/21 07:37:52;;;;;;;16.40;12.07;;;4.60;99.90;;;;;;5004253;28;20045;-66
2022/03/21 07:40:19;;;;;;;16.20;11.60;;;4.70;99.90;;;;;;5003771;28;20111;-68
2022/03/21 07:42:48;;;;;;;18.85;12.57;;;4.80;99.90;;;;;;5001472;28;20592;-66
2022/03/21 07:48:03;;;;;;;16.88;11.98;;;5.00;99.90;;;;;;5003584;28;20077;-68
2022/03/21 07:50:30;;;;;;;22.85;13.25;;;5.10;99.90;;;;;;5002429;28;20444;-65
2022/03/21 07:52:59;;;;;;;20.40;13.35;;;5.20;99.90;;;;;;4999007;28;20058;-66
2022/03/21 07:55:27;;;;;;;18.90;12.32;;;5.40;99.90;;;;;;4992582;28;20153;-68
2022/03/21 07:57:54;;;;;;;18.17;11.88;;;5.50;99.90;;;;;;4988864;28;21900;-70
2022/03/21 08:00:21;;;;;;;22.98;14.35;;;5.50;99.90;;;;;;4990286;28;20642;-74
2022/03/21 08:02:49;;;;;;;18.05;13.02;;;5.60;99.90;;;;;;4986556;28;20489;-67
2022/03/21 08:05:16;;;;;;;19.33;13.63;;;5.70;99.90;;;;;;4989436;28;20175;-64
2022/03/21 08:07:43;;;;;;;25.92;13.13;;;5.70;99.90;;;;;;4988904;28;21361;-65
2022/03/21 08:10:11;;;;;;;16.60;13.00;;;5.70;99.90;;;;;;4999436;28;20050;-66
2022/03/21 08:12:42;;;;;;;27.95;16.10;;;5.80;99.90;;;;;;4986846;28;20045;-69
2022/03/21 08:15:12;;;;;;;25.90;14.35;;;5.90;99.90;;;;;;4988816;28;20049;-69
2022/03/21 08:17:50;;;;;;;19.52;14.82;;;6.00;99.90;;;;;;4990359;28;20057;-72
2022/03/21 08:20:20;;;;;;;29.35;15.93;;;6.10;99.90;;;;;;4989164;28;20105;-63
2022/03/21 08:22:48;;;;;;;32.25;16.23;;;6.30;99.90;;;;;;4991370;28;20042;-68
2022/03/21 08:25:16;;;;;;;30.15;19.33;;;6.40;99.90;;;;;;4985743;28;20053;-66
2022/03/21 08:27:44;;;;;;;28.13;17.70;;;6.60;99.90;;;;;;4989802;28;20057;-66
2022/03/21 08:30:13;;;;;;;41.40;19.15;;;6.70;99.90;;;;;;4991509;28;20557;-65
2022/03/21 08:32:44;;;;;;;30.17;17.88;;;6.70;99.90;;;;;;4987376;28;20050;-65
2022/03/21 08:35:11;;;;;;;30.52;21.67;;;6.90;99.90;;;;;;4989697;28;20053;-64
2022/03/21 08:37:39;;;;;;;34.67;23.80;;;6.90;99.90;;;;;;4986628;28;20271;-66
2022/03/21 08:40:08;;;;;;;35.10;25.55;;;7.10;99.90;;;;;;4986272;28;20171;-68
2022/03/21 08:42:36;;;;;;;36.30;26.00;;;7.30;99.90;;;;;;4986223;28;20136;-71
2022/03/21 08:45:07;;;;;;;33.03;25.23;;;7.50;99.90;;;;;;4986219;28;20065;-66
2022/03/21 08:47:35;;;;;;;40.15;24.77;;;7.60;99.90;;;;;;5002409;28;20148;-67
2022/03/21 08:50:03;;;;;;;39.15;25.55;;;7.70;99.90;;;;;;5001638;28;20061;-70
2022/03/21 08:52:30;;;;;;;40.47;29.55;;;7.80;99.90;;;;;;4990266;28;20049;-66
2022/03/21 08:54:57;;;;;;;42.85;26.00;;;7.90;99.90;;;;;;4987570;28;20149;-66
2022/03/21 08:57:24;;;;;;;39.47;25.75;;;8.00;99.90;;;;;;5000154;28;20050;-63
2022/03/21 08:59:52;;;;;;;34.70;24.52;;;8.10;99.90;;;;;;4998380;28;20140;-66
2022/03/21 09:02:20;;;;;;;31.20;24.77;;;8.20;99.90;;;;;;4995915;28;20053;-67
2022/03/21 09:04:47;;;;;;;40.65;28.50;;;8.20;99.90;;;;;;4995785;28;20766;-64
2022/03/21 09:07:14;;;;;;;38.85;28.33;;;8.30;99.90;;;;;;4994274;28;20558;-64
2022/03/21 09:09:42;;;;;;;43.50;29.45;;;8.40;99.90;;;;;;4999622;28;20777;-63
2022/03/21 09:12:09;;;;;;;39.22;28.73;;;8.50;99.90;;;;;;4989889;28;20058;-67
2022/03/21 09:14:36;;;;;;;40.80;27.23;;;8.60;99.90;;;;;;4988390;28;20074;-63
2022/03/21 09:17:04;;;;;;;43.95;27.40;;;8.70;99.90;;;;;;5000791;28;20171;-68
2022/03/21 09:19:31;;;;;;;35.53;26.10;;;8.70;99.90;;;;;;5002776;28;20132;-66
2022/03/21 09:21:59;;;;;;;40.00;26.45;;;8.90;99.90;;;;;;5003101;28;20057;-65
2022/03/21 09:24:26;;;;;;;36.65;25.83;;;8.90;99.90;;;;;;4997079;28;20219;-62
2022/03/21 09:26:53;;;;;;;31.48;24.20;;;9.00;99.90;;;;;;4999818;28;20802;-66
2022/03/21 09:29:20;;;;;;;32.17;24.85;;;9.10;99.90;;;;;;5000724;28;20156;-65
2022/03/21 09:31:48;;;;;;;35.95;22.38;;;9.20;99.90;;;;;;4998855;28;20059;-64
2022/03/21 09:34:17;;;;;;;35.97;23.23;;;9.30;99.90;;;;;;4997787;28;20057;-69
2022/03/21 09:36:45;;;;;;;33.00;24.08;;;9.40;99.90;;;;;;4992616;28;20128;-63
2022/03/21 09:39:13;;;;;;;33.88;22.50;;;9.50;99.90;;;;;;4993492;28;20073;-66
2022/03/21 09:41:40;;;;;;;30.02;22.90;;;9.50;99.90;;;;;;4993733;28;20070;-63
2022/03/21 09:44:09;;;;;;;30.02;21.80;;;9.60;99.90;;;;;;4999574;28;20054;-66
2022/03/21 09:46:39;;;;;;;31.30;21.65;;;9.70;99.90;;;;;;4998563;28;20391;-63
2022/03/21 09:49:11;;;;;;;41.78;23.80;;;9.80;99.90;;;;;;4985447;28;20104;-68
2022/03/21 09:51:41;;;;;;;43.83;29.13;;;9.70;99.90;;;;;;5002615;28;20061;-68
2022/03/21 09:54:09;;;;;;;40.65;25.08;;;9.60;99.90;;;;;;4999120;28;20571;-65
2022/03/21 09:56:37;;;;;;;41.03;24.90;;;9.50;99.90;;;;;;5004163;28;20187;-66
2022/03/21 09:59:04;;;;;;;38.67;23.30;;;9.40;99.90;;;;;;5003459;28;20691;-66
2022/03/21 10:01:32;;;;;;;36.05;23.70;;;9.40;99.90;;;;;;5002670;28;20165;-64
2022/03/21 10:04:00;;;;;;;34.47;24.13;;;9.30;99.90;;;;;;4999348;28;20132;-66
2022/03/21 10:06:32;;;;;;;37.20;24.23;;;9.30;99.90;;;;;;4999315;28;20476;-67
2022/03/21 10:09:15;;;;;;;44.80;26.25;;;9.30;99.90;;;;;;4997716;28;20443;-63
2022/03/21 10:11:49;;;;;;;40.53;23.63;;;9.40;99.90;;;;;;4998079;28;20476;-65
2022/03/21 10:14:33;;;;;;;34.72;23.25;;;9.20;99.90;;;;;;5004611;28;20053;-63
2022/03/21 10:17:06;;;;;;;41.28;22.48;;;9.10;99.90;;;;;;5003901;28;20053;-67
2022/03/21 10:19:46;;;;;;;34.05;21.33;;;9.10;99.90;;;;;;4998507;28;20057;-66
2022/03/21 10:22:15;;;;;;;34.10;21.13;;;9.10;99.90;;;;;;4995610;28;20389;-66
2022/03/21 10:24:50;;;;;;;29.85;21.05;;;9.00;99.90;;;;;;5003491;28;20131;-66
2022/03/21 10:27:32;;;;;;;32.03;22.23;;;9.00;99.90;;;;;;5003840;28;20111;-65
2022/03/21 10:30:02;;;;;;;28.33;21.60;;;8.80;99.90;;;;;;5003180;28;20452;-64
2022/03/21 10:32:31;;;;;;;34.38;23.80;;;8.60;99.90;;;;;;5003822;28;20138;-63
2022/03/21 10:35:02;;;;;;;38.60;24.05;;;8.50;99.90;;;;;;5002421;28;20612;-63
2022/03/21 10:37:46;;;;;;;32.20;23.33;;;8.60;99.90;;;;;;4997684;28;20049;-62
2022/03/21 10:40:25;;;;;;;37.33;24.95;;;8.50;99.90;;;;;;5004238;28;20056;-65
2022/03/21 10:42:57;;;;;;;32.30;22.75;;;8.50;99.90;;;;;;5000799;28;20053;-68
2022/03/21 10:45:49;;;;;;;57.03;22.77;;;8.60;99.90;;;;;;5001708;28;20176;-71
2022/03/21 10:48:30;;;;;;;32.40;21.95;;;8.80;99.90;;;;;;5003058;28;20460;-65
2022/03/21 10:50:59;;;;;;;32.75;20.25;;;8.80;99.90;;;;;;5001111;28;20065;-63
2022/03/21 10:53:29;;;;;;;35.75;21.63;;;8.90;99.90;;;;;;4996376;28;20124;-64
2022/03/21 10:56:08;;;;;;;33.05;20.98;;;9.00;99.90;;;;;;5004379;28;20092;-62
2022/03/21 10:58:43;;;;;;;25.53;20.33;;;9.00;99.90;;;;;;5004400;28;20131;-64
2022/03/21 11:01:15;;;;;;;32.08;23.02;;;9.10;99.90;;;;;;4999754;28;20046;-63
2022/03/21 11:03:45;;;;;;;34.70;21.65;;;9.10;99.90;;;;;;5002878;28;20050;-65
2022/03/21 11:06:14;;;;;;;35.50;22.83;;;9.00;99.90;;;;;;5004232;28;20541;-65
2022/03/21 11:08:41;;;;;;;28.40;22.13;;;9.10;99.90;;;;;;5004409;28;20156;-63
2022/03/21 11:11:09;;;;;;;34.83;22.10;;;8.90;99.90;;;;;;5001168;28;20064;-63
2022/03/21 11:13:40;;;;;;;37.88;21.88;;;8.60;99.90;;;;;;5004997;28;20057;-66
2022/03/21 11:16:07;;;;;;;30.15;24.85;;;8.50;99.90;;;;;;5003984;28;20053;-63
2022/03/21 11:18:34;;;;;;;34.45;26.67;;;8.30;99.90;;;;;;4990964;28;20061;-63
2022/03/21 11:21:02;;;;;;;30.98;24.02;;;8.20;99.90;;;;;;5002096;28;20139;-67
2022/03/21 11:23:30;;;;;;;31.23;24.35;;;8.30;99.90;;;;;;5001877;28;20073;-63
2022/03/21 11:26:11;;;;;;;31.88;25.00;;;8.40;99.90;;;;;;5001599;28;20053;-64
2022/03/21 11:29:17;;;;;;;37.97;27.70;;;8.50;99.90;;;;;;5002404;28;20120;-63
2022/03/21 11:31:59;;;;;;;36.08;25.55;;;8.60;99.90;;;;;;4996326;28;20054;-63
2022/03/21 11:34:55;;;;;;;37.90;26.63;;;8.20;99.90;;;;;;4997110;28;20161;-66
2022/03/21 11:37:27;;;;;;;41.38;25.75;;;8.00;99.90;;;;;;4992804;28;20495;-67
2022/03/21 11:40:29;;;;;;;42.50;26.48;;;8.00;99.90;;;;;;5002455;28;20484;-75
2022/03/21 11:43:19;;;;;;;40.67;28.83;;;8.00;99.90;;;;;;4984029;28;20416;-64
2022/03/21 11:45:54;;;;;;;33.90;24.67;;;8.30;99.90;;;;;;4997381;28;20050;-70
2022/03/21 11:48:24;;;;;;;40.05;25.63;;;8.50;99.90;;;;;;4998546;28;20058;-68
2022/03/21 11:51:14;;;;;;;36.72;24.75;;;8.50;99.90;;;;;;4995384;28;20148;-64
2022/03/21 11:53:47;;;;;;;39.47;25.83;;;8.20;99.90;;;;;;4994335;28;20103;-65
2022/03/21 11:56:37;;;;;;;38.72;28.30;;;7.80;99.90;;;;;;5001241;28;20121;-68
2022/03/21 11:59:04;;;;;;;37.30;24.98;;;7.90;99.90;;;;;;4998648;28;20120;-66
2022/03/21 12:01:31;;;;;;;34.05;24.75;;;8.00;99.90;;;;;;5004601;28;20049;-66
2022/03/21 12:04:23;;;;;;;38.97;28.10;;;7.80;99.90;;;;;;5002923;28;20049;-69
2022/03/21 12:06:51;;;;;;;45.22;27.17;;;7.70;99.90;;;;;;4997315;28;20034;-65
2022/03/21 12:09:20;;;;;;;44.33;30.58;;;7.70;99.90;;;;;;4996509;28;20137;-69
2022/03/21 12:11:50;;;;;;;42.47;28.42;;;7.80;99.90;;;;;;5002453;28;20136;-66
2022/03/21 12:14:28;;;;;;;;;;;7.90;99.90;;;;;;4998847;28;20074;-66
2022/03/21 12:17:02;;;;;;;39.95;30.35;;;7.80;99.90;;;;;;5003452;28;20393;-64
2022/03/21 12:22:30;;;;;;;47.47;31.73;;;7.90;99.90;;;;;;5002103;28;20045;-71
2022/03/21 12:25:22;;;;;;;48.13;29.17;;;7.90;99.90;;;;;;4993427;28;20057;-64
2022/03/21 12:27:52;;;;;;;41.95;30.42;;;8.00;99.90;;;;;;4994229;28;20065;-65
2022/03/21 12:30:23;;;;;;;42.10;29.48;;;7.90;99.90;;;;;;5000296;28;20049;-70
2022/03/21 12:33:05;;;;;;;37.80;28.70;;;7.90;99.90;;;;;;4998682;28;20052;-65
2022/03/21 12:35:32;;;;;;;41.08;29.08;;;8.00;99.90;;;;;;4998582;28;20055;-67
2022/03/21 12:38:03;;;;;;;40.25;28.40;;;8.20;99.90;;;;;;5000860;28;20396;-71
2022/03/21 12:40:30;;;;;;;;;;;8.30;99.90;;;;;;5001708;28;20153;-66
2022/03/21 12:42:59;;;;;;;40.40;29.63;;;8.30;99.90;;;;;;4989166;28;19921;-69
2022/03/21 12:45:29;;;;;;;45.17;28.40;;;8.30;99.90;;;;;;5000858;28;20057;-68
2022/03/21 12:48:00;;;;;;;;;;;8.30;99.90;;;;;;4998363;28;20046;-68
2022/03/21 12:50:27;;;;;;;48.30;33.45;;;8.30;99.90;;;;;;5001396;28;19922;-66
2022/03/21 12:53:11;;;;;;;47.05;30.20;;;8.30;99.90;;;;;;4998061;28;20193;-66
2022/03/21 12:55:40;;;;;;;47.83;31.83;;;8.50;99.90;;;;;;4996691;28;20060;-66
2022/03/21 12:58:08;;;;;;;38.95;29.40;;;8.70;99.90;;;;;;5001905;28;20192;-65
2022/03/21 13:00:38;;;;;;;42.60;30.77;;;8.80;99.90;;;;;;5003201;28;20077;-67
2022/03/21 13:03:10;;;;;;;36.47;29.42;;;8.80;99.90;;;;;;4991461;28;20058;-64
2022/03/21 13:11:27;;;;;;;54.30;30.67;;;8.40;99.90;;;;;;4996160;28;20527;-66
2022/03/21 13:14:17;;;;;;;50.38;29.95;;;8.40;99.90;;;;;;4998121;28;20292;-64